Details From LFBO - Toulouse Blagnac
To LFBA - Agen la Garenne
Flight Number -
Tags generated
Created
Modified
Stats Distance 47 nm / 87 km
Max Altitude 1,300 ft / 396 m
Waypoints 3
Social Downloads 2
Likes 0
Share VATSIM

Download

Looking for another format? Having issues loading an existing format? Contact us
Advertisement - Login to hide

Notes

Basic altitude profile: - Ascent Rate: 2500ft/min - Ascent Speed: 250kts - Cruise Altitude: 35000ft - Cruise Speed: 420kts - Descent Rate: 1500ft/min - Descent Speed: 250kts

Route

LFBO TOU LFBA

ID Type Via Altitude Latitude Longitude Leg Dist Tot Dist Heading (true) Name
O LFBO APT - 0 ft / 0 m 43.62903˚ 1.36397˚ - 0 nm - Toulouse Blagnac
TOU VOR - 1,300 ft / 396 m 43.68083˚ 1.30981˚ 3 nm 3 nm 323° / 323° TOULOUSE BLAGNAC VOR-DME
O LFBA APT - 0 ft / 0 m 44.17403˚ 0.59296˚ 42 nm 46 nm 314° / 313° Agen la Garenne

Altitude Profile

Advertisement - Login to hide

LFBO

Details ICAO LFBO (TLS)
Name Toulouse Blagnac
Region France
Timezone Europe/Paris (UTC+1.0)
Stats Elevation 499 ft / 152 m (AMSL)
Location 43.629026° 1.363969°
Runways 2
Magnetic Variation 0.575° E

METAR

LFBO 152000Z AUTO 26014KT 9999 FEW047 BKN070 BKN094 07/03 Q1010 TEMPO 28018G30KT 4000 SHRA BKN020 BKN040CB

Decode

TAF

TAF LFBO 151700Z 1518/1624 28014KT 9999 SCT025 TEMPO 1518/1522 28018G30KT 4000 SHRA BKN020 BKN040CB

Decode

Departure Runways

ID Width Length Bearing (true) Bearing (mag) Surface Threshold Offset Overrun Length
14L 148 ft / 45 m 9,923 ft / 3,025 m 143.00° 142.43° Asphalt 0 ft / 0 m 0 ft / 0 m
14R 148 ft / 45 m 11,484 ft / 3,500 m 142.99° 142.42° Asphalt 0 ft / 0 m 295 ft / 90 m
32L 148 ft / 45 m 11,484 ft / 3,500 m 323.01° 322.44° Asphalt 0 ft / 0 m 197 ft / 60 m
32R 148 ft / 45 m 9,923 ft / 3,025 m 323.02° 322.45° Asphalt 0 ft / 0 m 0 ft / 0 m

LFBA

Details ICAO LFBA (AGF)
Name Agen la Garenne
Region France
Timezone Europe/Paris (UTC+1.0)
Stats Elevation 204 ft / 62 m (AMSL)
Location 44.174025° 0.592961°
Runways 1
Magnetic Variation 0.342° E

METAR

LFBA 152000Z AUTO 27008KT 9999 BKN038 BKN230 06/04 Q1010 BECMG SCT030TCU BKN050

Decode

TAF

Not found

Destination Runways

ID Width Length Bearing (true) Bearing (mag) Surface Threshold Offset Overrun Length
11 98 ft / 30 m 7,088 ft / 2,161 m 112.24° 111.90° Asphalt 541 ft / 165 m 0 ft / 0 m
29 98 ft / 30 m 7,088 ft / 2,161 m 292.26° 291.92° Asphalt 1,312 ft / 400 m 0 ft / 0 m

Approach Navaids

Runway Type Ident Frequency Range Bearing (true) Bearing (mag) Slope Elevation
29 Localiser AG 110.35 MHz 18 nm / 33 km 292.25° 291.91° - 213 ft / 65 m (AMSL)
29 Glidescope AG 110.35 MHz 10 nm / 19 km 292.25° 291.91° 3.30° 240 ft / 73 m (AMSL)
29 DME AG 110.35 MHz 18 nm / 33 km - - - 240 ft / 73 m (AMSL)

Popular Alternatives